sensor_id;sensor_type;location;lat;lon;timestamp;P1;P2;P0
66336;PMS1003;53139;45.576;5.304;2022-07-06T00:01:04;2.25;2.25;2.00
66336;PMS1003;53139;45.576;5.304;2022-07-06T00:04:04;3.00;3.00;3.00
66336;PMS1003;53139;45.576;5.304;2022-07-06T00:07:05;2.50;2.50;2.00
66336;PMS1003;53139;45.576;5.304;2022-07-06T00:10:06;5.00;3.50;3.00
66336;PMS1003;53139;45.576;5.304;2022-07-06T00:13:06;5.75;3.00;2.00
66336;PMS1003;53139;45.576;5.304;2022-07-06T00:16:07;3.00;2.00;2.00
66336;PMS1003;53139;45.576;5.304;2022-07-06T00:19:07;3.00;2.25;2.00
66336;PMS1003;53139;45.576;5.304;2022-07-06T00:22:07;3.00;3.00;3.00
66336;PMS1003;53139;45.576;5.304;2022-07-06T00:25:08;2.25;2.25;2.00
66336;PMS1003;53139;45.576;5.304;2022-07-06T00:28:09;5.00;5.00;3.75
66336;PMS1003;53139;45.576;5.304;2022-07-06T00:31:09;4.50;2.00;2.00
66336;PMS1003;53139;45.576;5.304;2022-07-06T00:34:09;5.00;5.00;3.75
66336;PMS1003;53139;45.576;5.304;2022-07-06T00:37:10;4.00;2.75;2.00
66336;PMS1003;53139;45.576;5.304;2022-07-06T00:40:10;3.00;2.00;2.00
66336;PMS1003;53139;45.576;5.304;2022-07-06T00:43:11;5.00;3.00;2.75
66336;PMS1003;53139;45.576;5.304;2022-07-06T00:46:11;4.75;4.00;3.75
66336;PMS1003;53139;45.576;5.304;2022-07-06T00:49:12;3.00;3.00;2.50
66336;PMS1003;53139;45.576;5.304;2022-07-06T00:52:32;2.75;2.75;2.25
66336;PMS1003;53139;45.576;5.304;2022-07-06T00:55:34;3.25;3.25;3.00
66336;PMS1003;53139;45.576;5.304;2022-07-06T00:58:36;2.50;2.50;2.00
66336;PMS1003;53139;45.576;5.304;2022-07-06T01:01:36;4.00;3.00;3.00
66336;PMS1003;53139;45.576;5.304;2022-07-06T01:04:37;4.00;4.00;3.00
66336;PMS1003;53139;45.576;5.304;2022-07-06T01:07:37;3.50;3.50;3.00
66336;PMS1003;53139;45.576;5.304;2022-07-06T01:10:39;2.25;2.25;2.00
66336;PMS1003;53139;45.576;5.304;2022-07-06T01:13:39;3.00;3.00;3.00
66336;PMS1003;53139;45.576;5.304;2022-07-06T01:16:41;3.50;2.75;2.00
66336;PMS1003;53139;45.576;5.304;2022-07-06T01:19:41;3.00;3.00;3.00
66336;PMS1003;53139;45.576;5.304;2022-07-06T01:22:42;4.75;3.50;3.00
66336;PMS1003;53139;45.576;5.304;2022-07-06T01:25:43;3.00;3.00;3.00
66336;PMS1003;53139;45.576;5.304;2022-07-06T01:28:44;3.00;3.00;3.00
66336;PMS1003;53139;45.576;5.304;2022-07-06T01:31:48;3.50;3.00;3.00
66336;PMS1003;53139;45.576;5.304;2022-07-06T01:34:49;3.25;3.25;3.00
66336;PMS1003;53139;45.576;5.304;2022-07-06T01:37:50;3.25;3.25;3.00
66336;PMS1003;53139;45.576;5.304;2022-07-06T01:40:50;2.50;2.50;2.25
66336;PMS1003;53139;45.576;5.304;2022-07-06T01:43:50;2.75;2.75;2.25
66336;PMS1003;53139;45.576;5.304;2022-07-06T01:46:51;3.00;3.00;2.75
66336;PMS1003;53139;45.576;5.304;2022-07-06T01:49:51;3.50;2.00;1.00
66336;PMS1003;53139;45.576;5.304;2022-07-06T01:52:52;3.00;3.00;2.25
66336;PMS1003;53139;45.576;5.304;2022-07-06T01:55:53;4.00;4.00;3.00
66336;PMS1003;53139;45.576;5.304;2022-07-06T01:58:53;5.75;4.50;4.00
66336;PMS1003;53139;45.576;5.304;2022-07-06T02:01:53;4.25;3.00;2.75
66336;PMS1003;53139;45.576;5.304;2022-07-06T02:04:54;3.25;3.00;2.75
66336;PMS1003;53139;45.576;5.304;2022-07-06T02:07:54;4.75;3.25;3.00
66336;PMS1003;53139;45.576;5.304;2022-07-06T02:10:55;3.00;3.00;2.75
66336;PMS1003;53139;45.576;5.304;2022-07-06T02:13:55;5.00;4.50;2.75
66336;PMS1003;53139;45.576;5.304;2022-07-06T02:16:56;4.25;3.50;2.75
66336;PMS1003;53139;45.576;5.304;2022-07-06T02:19:56;4.00;4.00;3.00
66336;PMS1003;53139;45.576;5.304;2022-07-06T02:22:56;3.75;3.50;3.00
66336;PMS1003;53139;45.576;5.304;2022-07-06T02:25:57;4.50;3.00;2.25
66336;PMS1003;53139;45.576;5.304;2022-07-06T02:28:57;3.00;3.00;3.00
66336;PMS1003;53139;45.576;5.304;2022-07-06T02:31:57;3.50;3.50;3.50
66336;PMS1003;53139;45.576;5.304;2022-07-06T02:34:58;4.75;3.75;3.00
66336;PMS1003;53139;45.576;5.304;2022-07-06T02:37:59;4.00;3.25;3.00
66336;PMS1003;53139;45.576;5.304;2022-07-06T02:41:00;4.50;3.50;3.00
66336;PMS1003;53139;45.576;5.304;2022-07-06T02:44:00;4.00;3.00;3.00
66336;PMS1003;53139;45.576;5.304;2022-07-06T02:47:00;2.75;2.75;2.00
66336;PMS1003;53139;45.576;5.304;2022-07-06T02:50:01;3.00;2.00;2.00
66336;PMS1003;53139;45.576;5.304;2022-07-06T02:53:01;3.50;3.00;3.00
66336;PMS1003;53139;45.576;5.304;2022-07-06T02:56:02;6.00;3.00;2.00
66336;PMS1003;53139;45.576;5.304;2022-07-06T02:59:02;4.75;3.00;2.50
66336;PMS1003;53139;45.576;5.304;2022-07-06T03:02:03;3.25;3.25;3.00
66336;PMS1003;53139;45.576;5.304;2022-07-06T03:05:04;7.25;3.75;3.00
66336;PMS1003;53139;45.576;5.304;2022-07-06T03:08:05;4.00;3.00;3.00
66336;PMS1003;53139;45.576;5.304;2022-07-06T03:11:05;3.75;3.75;3.00
66336;PMS1003;53139;45.576;5.304;2022-07-06T03:14:06;3.00;3.00;3.00
66336;PMS1003;53139;45.576;5.304;2022-07-06T03:17:06;3.75;3.50;3.00
66336;PMS1003;53139;45.576;5.304;2022-07-06T03:20:07;4.00;4.00;3.25
66336;PMS1003;53139;45.576;5.304;2022-07-06T03:23:07;3.25;3.00;2.00
66336;PMS1003;53139;45.576;5.304;2022-07-06T03:26:08;3.75;3.00;2.00
66336;PMS1003;53139;45.576;5.304;2022-07-06T03:29:08;4.00;4.00;3.25
66336;PMS1003;53139;45.576;5.304;2022-07-06T03:32:08;4.25;4.00;3.00
66336;PMS1003;53139;45.576;5.304;2022-07-06T03:35:09;5.00;4.00;3.00
66336;PMS1003;53139;45.576;5.304;2022-07-06T03:38:09;4.00;4.00;3.00
66336;PMS1003;53139;45.576;5.304;2022-07-06T03:41:09;4.00;4.00;3.00
66336;PMS1003;53139;45.576;5.304;2022-07-06T03:44:10;12.50;7.50;5.50
66336;PMS1003;53139;45.576;5.304;2022-07-06T03:47:10;5.25;4.00;3.25
66336;PMS1003;53139;45.576;5.304;2022-07-06T03:50:11;4.00;2.67;2.33
66336;PMS1003;53139;45.576;5.304;2022-07-06T03:53:11;3.25;3.25;3.00
66336;PMS1003;53139;45.576;5.304;2022-07-06T03:56:12;4.00;3.00;2.00
66336;PMS1003;53139;45.576;5.304;2022-07-06T03:59:27;3.50;3.50;3.00
66336;PMS1003;53139;45.576;5.304;2022-07-06T04:02:28;5.33;5.33;4.00
66336;PMS1003;53139;45.576;5.304;2022-07-06T04:05:28;6.00;4.75;3.00
66336;PMS1003;53139;45.576;5.304;2022-07-06T04:08:28;3.00;3.00;2.00
66336;PMS1003;53139;45.576;5.304;2022-07-06T04:11:29;2.00;2.00;2.00
66336;PMS1003;53139;45.576;5.304;2022-07-06T04:14:29;3.50;3.25;3.00
66336;PMS1003;53139;45.576;5.304;2022-07-06T04:17:30;4.75;4.50;3.75
66336;PMS1003;53139;45.576;5.304;2022-07-06T04:20:48;8.25;7.00;6.25
66336;PMS1003;53139;45.576;5.304;2022-07-06T04:23:49;12.00;10.50;8.00
66336;PMS1003;53139;45.576;5.304;2022-07-06T04:26:49;39.00;28.50;21.00
66336;PMS1003;53139;45.576;5.304;2022-07-06T04:29:50;15.00;14.67;10.33
66336;PMS1003;53139;45.576;5.304;2022-07-06T04:32:50;6.00;6.00;4.50
66336;PMS1003;53139;45.576;5.304;2022-07-06T04:35:50;4.00;4.00;3.00
66336;PMS1003;53139;45.576;5.304;2022-07-06T04:38:51;2.25;2.25;2.00
66336;PMS1003;53139;45.576;5.304;2022-07-06T04:41:51;5.00;3.00;2.00
66336;PMS1003;53139;45.576;5.304;2022-07-06T04:44:51;10.00;10.00;8.00
66336;PMS1003;53139;45.576;5.304;2022-07-06T04:47:52;7.50;6.00;5.00
66336;PMS1003;53139;45.576;5.304;2022-07-06T04:50:53;5.00;4.25;3.50
66336;PMS1003;53139;45.576;5.304;2022-07-06T04:53:54;6.00;4.25;4.00
66336;PMS1003;53139;45.576;5.304;2022-07-06T04:56:54;10.33;8.67;7.00
66336;PMS1003;53139;45.576;5.304;2022-07-06T04:59:55;4.25;4.25;3.00
66336;PMS1003;53139;45.576;5.304;2022-07-06T05:02:55;5.50;4.75;4.00
66336;PMS1003;53139;45.576;5.304;2022-07-06T05:05:56;5.00;5.00;5.00
66336;PMS1003;53139;45.576;5.304;2022-07-06T05:08:56;5.00;4.50;4.00
66336;PMS1003;53139;45.576;5.304;2022-07-06T05:11:59;7.00;6.50;4.50
66336;PMS1003;53139;45.576;5.304;2022-07-06T05:14:59;6.00;5.00;4.00
66336;PMS1003;53139;45.576;5.304;2022-07-06T05:18:00;4.00;4.00;3.25
66336;PMS1003;53139;45.576;5.304;2022-07-06T05:21:00;3.25;3.25;3.00
66336;PMS1003;53139;45.576;5.304;2022-07-06T05:24:01;3.00;3.00;3.00
66336;PMS1003;53139;45.576;5.304;2022-07-06T05:27:01;4.00;3.75;3.00
66336;PMS1003;53139;45.576;5.304;2022-07-06T05:30:02;5.50;4.00;3.50
66336;PMS1003;53139;45.576;5.304;2022-07-06T05:33:03;5.00;3.25;3.00
66336;PMS1003;53139;45.576;5.304;2022-07-06T05:36:03;3.00;3.00;3.00
66336;PMS1003;53139;45.576;5.304;2022-07-06T05:39:04;3.75;3.00;2.00
66336;PMS1003;53139;45.576;5.304;2022-07-06T05:42:05;4.00;2.50;1.75
66336;PMS1003;53139;45.576;5.304;2022-07-06T05:45:06;3.00;3.00;3.00
66336;PMS1003;53139;45.576;5.304;2022-07-06T05:48:06;3.50;2.00;2.00
66336;PMS1003;53139;45.576;5.304;2022-07-06T05:51:25;2.50;2.50;2.00
66336;PMS1003;53139;45.576;5.304;2022-07-06T05:54:26;3.00;3.00;2.00
66336;PMS1003;53139;45.576;5.304;2022-07-06T05:57:26;1.50;1.50;1.50
66336;PMS1003;53139;45.576;5.304;2022-07-06T06:00:27;5.25;3.00;2.00
66336;PMS1003;53139;45.576;5.304;2022-07-06T06:03:28;6.25;2.50;2.50
66336;PMS1003;53139;45.576;5.304;2022-07-06T06:06:28;4.25;3.00;2.25
66336;PMS1003;53139;45.576;5.304;2022-07-06T06:09:31;1.75;1.75;1.50
66336;PMS1003;53139;45.576;5.304;2022-07-06T06:12:31;4.00;1.00;1.00
66336;PMS1003;53139;45.576;5.304;2022-07-06T06:15:32;2.75;2.50;2.25
66336;PMS1003;53139;45.576;5.304;2022-07-06T06:18:33;4.00;3.00;2.00
66336;PMS1003;53139;45.576;5.304;2022-07-06T06:21:33;1.75;1.75;1.50
66336;PMS1003;53139;45.576;5.304;2022-07-06T06:24:33;3.25;2.00;2.00
66336;PMS1003;53139;45.576;5.304;2022-07-06T06:27:34;2.50;2.50;2.00
66336;PMS1003;53139;45.576;5.304;2022-07-06T06:30:34;2.75;2.75;2.00
66336;PMS1003;53139;45.576;5.304;2022-07-06T06:33:36;3.00;2.75;2.25
66336;PMS1003;53139;45.576;5.304;2022-07-06T06:36:36;2.50;1.50;1.50
66336;PMS1003;53139;45.576;5.304;2022-07-06T06:39:36;2.25;2.25;2.00
66336;PMS1003;53139;45.576;5.304;2022-07-06T06:42:37;3.00;2.67;1.67
66336;PMS1003;53139;45.576;5.304;2022-07-06T06:45:38;3.00;3.00;2.50
66336;PMS1003;53139;45.576;5.304;2022-07-06T06:48:38;2.50;1.75;1.75
66336;PMS1003;53139;45.576;5.304;2022-07-06T06:51:38;2.25;2.00;2.00
66336;PMS1003;53139;45.576;5.304;2022-07-06T06:54:39;2.75;2.75;2.50
66336;PMS1003;53139;45.576;5.304;2022-07-06T06:57:40;3.00;3.00;2.25
66336;PMS1003;53139;45.576;5.304;2022-07-06T07:00:40;3.00;3.00;3.00
66336;PMS1003;53139;45.576;5.304;2022-07-06T07:03:43;2.50;2.00;2.00
66336;PMS1003;53139;45.576;5.304;2022-07-06T07:06:43;2.50;2.50;2.50
66336;PMS1003;53139;45.576;5.304;2022-07-06T07:09:43;2.75;2.00;2.00
66336;PMS1003;53139;45.576;5.304;2022-07-06T07:12:45;3.50;2.25;2.00
66336;PMS1003;53139;45.576;5.304;2022-07-06T07:15:46;2.25;2.00;2.00
66336;PMS1003;53139;45.576;5.304;2022-07-06T07:18:46;3.75;2.50;2.25
66336;PMS1003;53139;45.576;5.304;2022-07-06T07:21:47;3.00;3.00;2.25
66336;PMS1003;53139;45.576;5.304;2022-07-06T07:24:47;2.00;2.00;2.00
66336;PMS1003;53139;45.576;5.304;2022-07-06T07:27:48;1.75;1.75;1.50
66336;PMS1003;53139;45.576;5.304;2022-07-06T07:30:48;2.00;2.00;2.00
66336;PMS1003;53139;45.576;5.304;2022-07-06T07:33:48;4.50;3.50;3.00
66336;PMS1003;53139;45.576;5.304;2022-07-06T07:36:49;3.00;1.50;1.50
66336;PMS1003;53139;45.576;5.304;2022-07-06T07:39:50;3.00;2.75;2.25
66336;PMS1003;53139;45.576;5.304;2022-07-06T07:42:50;2.50;2.50;2.00
66336;PMS1003;53139;45.576;5.304;2022-07-06T07:45:51;3.00;2.50;2.00
66336;PMS1003;53139;45.576;5.304;2022-07-06T07:48:52;2.50;1.75;1.00
66336;PMS1003;53139;45.576;5.304;2022-07-06T07:51:52;3.00;2.25;2.00
66336;PMS1003;53139;45.576;5.304;2022-07-06T07:54:52;2.00;2.00;1.00
66336;PMS1003;53139;45.576;5.304;2022-07-06T07:57:53;1.75;1.50;1.50
66336;PMS1003;53139;45.576;5.304;2022-07-06T08:00:53;1.25;1.25;1.25
66336;PMS1003;53139;45.576;5.304;2022-07-06T08:03:54;2.00;2.00;2.00
66336;PMS1003;53139;45.576;5.304;2022-07-06T08:06:54;3.00;3.00;2.25
66336;PMS1003;53139;45.576;5.304;2022-07-06T08:09:54;3.25;2.50;2.00
66336;PMS1003;53139;45.576;5.304;2022-07-06T08:12:55;2.50;1.75;1.75
66336;PMS1003;53139;45.576;5.304;2022-07-06T08:15:55;3.00;3.00;2.25
66336;PMS1003;53139;45.576;5.304;2022-07-06T08:18:55;2.00;2.00;2.00
66336;PMS1003;53139;45.576;5.304;2022-07-06T08:21:56;2.00;2.00;1.50
66336;PMS1003;53139;45.576;5.304;2022-07-06T08:24:57;3.75;2.00;2.00
66336;PMS1003;53139;45.576;5.304;2022-07-06T08:27:58;6.25;2.25;2.00
66336;PMS1003;53139;45.576;5.304;2022-07-06T08:30:58;2.00;2.00;2.00
66336;PMS1003;53139;45.576;5.304;2022-07-06T08:33:59;1.50;1.50;1.50
66336;PMS1003;53139;45.576;5.304;2022-07-06T08:36:59;2.75;2.50;2.00
66336;PMS1003;53139;45.576;5.304;2022-07-06T08:39:59;1.50;1.50;1.00
66336;PMS1003;53139;45.576;5.304;2022-07-06T08:43:00;1.00;1.00;1.00
66336;PMS1003;53139;45.576;5.304;2022-07-06T08:46:01;4.00;1.50;1.00
66336;PMS1003;53139;45.576;5.304;2022-07-06T08:49:02;4.00;3.00;2.00
66336;PMS1003;53139;45.576;5.304;2022-07-06T08:52:03;1.75;1.75;1.50
66336;PMS1003;53139;45.576;5.304;2022-07-06T08:55:05;3.00;3.00;2.00
66336;PMS1003;53139;45.576;5.304;2022-07-06T08:58:06;2.00;2.00;2.00
66336;PMS1003;53139;45.576;5.304;2022-07-06T09:01:08;1.25;1.25;1.25
66336;PMS1003;53139;45.576;5.304;2022-07-06T09:04:09;2.25;2.00;1.75
66336;PMS1003;53139;45.576;5.304;2022-07-06T09:07:12;1.75;1.75;1.50
66336;PMS1003;53139;45.576;5.304;2022-07-06T09:10:13;2.00;2.00;1.00
66336;PMS1003;53139;45.576;5.304;2022-07-06T09:13:16;2.25;2.25;2.00
66336;PMS1003;53139;45.576;5.304;2022-07-06T09:16:17;3.00;2.50;2.25
66336;PMS1003;53139;45.576;5.304;2022-07-06T09:19:25;2.00;2.00;2.00
66336;PMS1003;53139;45.576;5.304;2022-07-06T09:25:26;1.00;1.00;1.00
66336;PMS1003;53139;45.576;5.304;2022-07-06T09:28:42;2.00;2.00;1.50
66336;PMS1003;53139;45.576;5.304;2022-07-06T09:31:45;2.00;2.00;1.25
66336;PMS1003;53139;45.576;5.304;2022-07-06T09:35:02;2.00;2.00;1.00
66336;PMS1003;53139;45.576;5.304;2022-07-06T09:38:03;1.00;1.00;1.00
66336;PMS1003;53139;45.576;5.304;2022-07-06T09:41:07;2.75;2.00;2.00
66336;PMS1003;53139;45.576;5.304;2022-07-06T09:44:09;1.00;1.00;1.00
66336;PMS1003;53139;45.576;5.304;2022-07-06T09:47:10;1.00;1.00;1.00
66336;PMS1003;53139;45.576;5.304;2022-07-06T09:50:14;1.25;1.25;1.00
66336;PMS1003;53139;45.576;5.304;2022-07-06T09:53:15;2.00;2.00;2.00
66336;PMS1003;53139;45.576;5.304;2022-07-06T09:56:17;2.00;2.00;1.75
66336;PMS1003;53139;45.576;5.304;2022-07-06T09:59:25;1.50;1.50;1.50
66336;PMS1003;53139;45.576;5.304;2022-07-06T10:02:27;2.50;2.00;2.00
66336;PMS1003;53139;45.576;5.304;2022-07-06T10:05:28;4.00;3.00;2.00
66336;PMS1003;53139;45.576;5.304;2022-07-06T10:08:32;2.25;2.00;2.00
66336;PMS1003;53139;45.576;5.304;2022-07-06T10:11:40;2.25;2.25;2.00
66336;PMS1003;53139;45.576;5.304;2022-07-06T10:14:48;3.25;3.25;3.25
66336;PMS1003;53139;45.576;5.304;2022-07-06T10:17:50;2.00;1.00;0.00
66336;PMS1003;53139;45.576;5.304;2022-07-06T10:20:52;2.00;2.00;2.00
66336;PMS1003;53139;45.576;5.304;2022-07-06T10:23:52;2.50;2.00;1.75
66336;PMS1003;53139;45.576;5.304;2022-07-06T10:26:54;2.00;2.00;2.00
66336;PMS1003;53139;45.576;5.304;2022-07-06T10:29:55;2.00;2.00;2.00
66336;PMS1003;53139;45.576;5.304;2022-07-06T10:32:56;4.00;3.50;2.50
66336;PMS1003;53139;45.576;5.304;2022-07-06T10:35:59;3.50;2.00;2.00
66336;PMS1003;53139;45.576;5.304;2022-07-06T10:38:59;1.00;1.00;1.00
66336;PMS1003;53139;45.576;5.304;2022-07-06T10:42:38;2.00;2.00;2.00
66336;PMS1003;53139;45.576;5.304;2022-07-06T10:45:50;5.00;3.25;2.50
66336;PMS1003;53139;45.576;5.304;2022-07-06T10:48:51;2.25;2.00;2.00
66336;PMS1003;53139;45.576;5.304;2022-07-06T10:51:52;3.50;3.50;3.25
66336;PMS1003;53139;45.576;5.304;2022-07-06T10:54:52;2.50;2.50;2.00
66336;PMS1003;53139;45.576;5.304;2022-07-06T10:57:56;3.50;3.50;3.00
66336;PMS1003;53139;45.576;5.304;2022-07-06T11:00:56;2.75;2.50;2.00
66336;PMS1003;53139;45.576;5.304;2022-07-06T11:06:57;3.00;3.00;3.00
66336;PMS1003;53139;45.576;5.304;2022-07-06T11:10:07;3.50;3.00;2.00
66336;PMS1003;53139;45.576;5.304;2022-07-06T11:13:07;2.75;2.75;2.50
66336;PMS1003;53139;45.576;5.304;2022-07-06T11:16:25;2.50;2.50;2.00
66336;PMS1003;53139;45.576;5.304;2022-07-06T11:19:27;3.00;3.00;2.50
66336;PMS1003;53139;45.576;5.304;2022-07-06T11:22:28;4.00;2.75;2.50
66336;PMS1003;53139;45.576;5.304;2022-07-06T11:25:30;4.50;3.75;3.50
66336;PMS1003;53139;45.576;5.304;2022-07-06T11:28:30;2.00;2.00;2.00
66336;PMS1003;53139;45.576;5.304;2022-07-06T11:31:35;2.75;2.75;2.00
66336;PMS1003;53139;45.576;5.304;2022-07-06T11:34:38;3.00;3.00;2.50
66336;PMS1003;53139;45.576;5.304;2022-07-06T11:37:43;4.00;3.25;3.00
66336;PMS1003;53139;45.576;5.304;2022-07-06T11:40:44;4.75;2.25;2.00
66336;PMS1003;53139;45.576;5.304;2022-07-06T11:43:45;2.25;2.25;2.00
66336;PMS1003;53139;45.576;5.304;2022-07-06T11:46:46;4.00;4.00;3.25
66336;PMS1003;53139;45.576;5.304;2022-07-06T11:49:49;3.00;3.00;2.00
66336;PMS1003;53139;45.576;5.304;2022-07-06T11:52:50;4.00;3.25;3.00
66336;PMS1003;53139;45.576;5.304;2022-07-06T11:55:50;3.00;3.00;2.25
66336;PMS1003;53139;45.576;5.304;2022-07-06T11:58:52;4.50;3.00;2.25
66336;PMS1003;53139;45.576;5.304;2022-07-06T12:02:00;1.25;1.25;1.25
66336;PMS1003;53139;45.576;5.304;2022-07-06T12:05:01;2.25;2.25;2.25
66336;PMS1003;53139;45.576;5.304;2022-07-06T12:08:05;3.00;3.00;3.00
66336;PMS1003;53139;45.576;5.304;2022-07-06T12:11:06;3.00;3.00;2.75
66336;PMS1003;53139;45.576;5.304;2022-07-06T12:14:13;3.75;3.25;2.75
66336;PMS1003;53139;45.576;5.304;2022-07-06T12:17:17;3.25;3.25;3.00
66336;PMS1003;53139;45.576;5.304;2022-07-06T12:20:18;2.75;2.75;2.75
66336;PMS1003;53139;45.576;5.304;2022-07-06T12:23:19;3.00;3.00;2.75
66336;PMS1003;53139;45.576;5.304;2022-07-06T12:26:21;4.25;2.75;2.50
66336;PMS1003;53139;45.576;5.304;2022-07-06T12:29:25;4.00;2.75;2.50
66336;PMS1003;53139;45.576;5.304;2022-07-06T12:32:25;3.50;2.50;1.75
66336;PMS1003;53139;45.576;5.304;2022-07-06T12:35:26;2.75;2.75;2.75
66336;PMS1003;53139;45.576;5.304;2022-07-06T12:38:27;2.00;2.00;2.00
66336;PMS1003;53139;45.576;5.304;2022-07-06T12:41:33;3.00;3.00;2.75
66336;PMS1003;53139;45.576;5.304;2022-07-06T12:44:41;3.00;2.50;2.25
66336;PMS1003;53139;45.576;5.304;2022-07-06T12:48:02;4.00;3.00;2.75
66336;PMS1003;53139;45.576;5.304;2022-07-06T12:51:04;1.75;1.75;1.25
66336;PMS1003;53139;45.576;5.304;2022-07-06T12:54:11;3.00;3.00;2.00
66336;PMS1003;53139;45.576;5.304;2022-07-06T13:00:25;3.00;3.00;2.00
66336;PMS1003;53139;45.576;5.304;2022-07-06T13:03:25;3.50;3.50;3.00
66336;PMS1003;53139;45.576;5.304;2022-07-06T13:06:26;4.00;3.75;3.25
66336;PMS1003;53139;45.576;5.304;2022-07-06T13:09:31;2.50;2.00;2.00
66336;PMS1003;53139;45.576;5.304;2022-07-06T13:12:31;2.50;2.50;2.25
66336;PMS1003;53139;45.576;5.304;2022-07-06T13:15:32;2.25;2.25;1.75
66336;PMS1003;53139;45.576;5.304;2022-07-06T13:18:32;2.75;2.75;2.00
66336;PMS1003;53139;45.576;5.304;2022-07-06T13:21:33;1.75;1.75;0.75
66336;PMS1003;53139;45.576;5.304;2022-07-06T13:24:34;4.75;3.50;3.00
66336;PMS1003;53139;45.576;5.304;2022-07-06T13:27:35;3.00;3.00;3.00
66336;PMS1003;53139;45.576;5.304;2022-07-06T13:30:35;2.75;2.75;2.50
66336;PMS1003;53139;45.576;5.304;2022-07-06T13:33:35;6.00;5.00;4.00
66336;PMS1003;53139;45.576;5.304;2022-07-06T13:36:36;3.00;3.00;2.50
66336;PMS1003;53139;45.576;5.304;2022-07-06T13:39:36;5.50;2.75;2.75
66336;PMS1003;53139;45.576;5.304;2022-07-06T13:42:37;4.00;2.50;2.00
66336;PMS1003;53139;45.576;5.304;2022-07-06T13:45:37;3.00;3.00;2.75
66336;PMS1003;53139;45.576;5.304;2022-07-06T13:48:37;2.50;2.50;2.00
66336;PMS1003;53139;45.576;5.304;2022-07-06T13:51:38;5.75;3.00;3.00
66336;PMS1003;53139;45.576;5.304;2022-07-06T13:54:39;5.00;4.00;3.75
66336;PMS1003;53139;45.576;5.304;2022-07-06T13:57:39;3.25;3.25;3.00
66336;PMS1003;53139;45.576;5.304;2022-07-06T14:00:42;2.25;2.25;1.75
66336;PMS1003;53139;45.576;5.304;2022-07-06T14:03:42;4.00;4.00;3.25
66336;PMS1003;53139;45.576;5.304;2022-07-06T14:06:43;3.00;3.00;3.00
66336;PMS1003;53139;45.576;5.304;2022-07-06T14:09:43;3.00;3.00;2.75
66336;PMS1003;53139;45.576;5.304;2022-07-06T14:12:43;1.75;1.75;1.75
66336;PMS1003;53139;45.576;5.304;2022-07-06T14:15:44;4.00;3.00;2.00
66336;PMS1003;53139;45.576;5.304;2022-07-06T14:18:44;4.50;3.25;3.00
66336;PMS1003;53139;45.576;5.304;2022-07-06T14:21:45;3.00;2.75;2.00
66336;PMS1003;53139;45.576;5.304;2022-07-06T14:24:46;2.75;2.75;1.75
66336;PMS1003;53139;45.576;5.304;2022-07-06T14:27:46;3.75;3.75;3.50
66336;PMS1003;53139;45.576;5.304;2022-07-06T14:30:46;3.25;3.25;2.50
66336;PMS1003;53139;45.576;5.304;2022-07-06T14:33:48;4.25;2.75;2.50
66336;PMS1003;53139;45.576;5.304;2022-07-06T14:36:49;3.50;2.00;2.00
66336;PMS1003;53139;45.576;5.304;2022-07-06T14:39:50;3.00;3.00;2.75
66336;PMS1003;53139;45.576;5.304;2022-07-06T14:42:51;3.00;3.00;2.25
66336;PMS1003;53139;45.576;5.304;2022-07-06T14:45:51;2.25;2.25;2.00
66336;PMS1003;53139;45.576;5.304;2022-07-06T14:48:53;2.75;2.75;2.00
66336;PMS1003;53139;45.576;5.304;2022-07-06T14:51:53;2.75;2.75;2.75
66336;PMS1003;53139;45.576;5.304;2022-07-06T14:54:54;2.25;2.25;1.75
66336;PMS1003;53139;45.576;5.304;2022-07-06T14:57:55;2.50;2.50;2.00
66336;PMS1003;53139;45.576;5.304;2022-07-06T15:00:55;3.00;3.00;2.75
66336;PMS1003;53139;45.576;5.304;2022-07-06T15:03:56;2.25;2.25;2.00
66336;PMS1003;53139;45.576;5.304;2022-07-06T15:06:56;2.00;2.00;2.00
66336;PMS1003;53139;45.576;5.304;2022-07-06T15:09:56;2.75;2.75;2.50
66336;PMS1003;53139;45.576;5.304;2022-07-06T15:12:57;3.00;3.00;3.00
66336;PMS1003;53139;45.576;5.304;2022-07-06T15:15:57;2.00;2.00;2.00
66336;PMS1003;53139;45.576;5.304;2022-07-06T15:18:58;1.75;1.75;1.75
66336;PMS1003;53139;45.576;5.304;2022-07-06T15:21:59;2.50;2.50;2.25
66336;PMS1003;53139;45.576;5.304;2022-07-06T15:24:59;2.75;2.75;2.75
66336;PMS1003;53139;45.576;5.304;2022-07-06T15:27:59;1.75;1.75;1.75
66336;PMS1003;53139;45.576;5.304;2022-07-06T15:31:00;2.00;2.00;2.00
66336;PMS1003;53139;45.576;5.304;2022-07-06T15:34:00;2.75;2.75;2.50
66336;PMS1003;53139;45.576;5.304;2022-07-06T15:37:01;1.75;1.75;1.75
66336;PMS1003;53139;45.576;5.304;2022-07-06T15:40:03;1.75;1.25;1.00
66336;PMS1003;53139;45.576;5.304;2022-07-06T15:43:06;1.75;1.75;1.75
66336;PMS1003;53139;45.576;5.304;2022-07-06T15:46:06;2.25;2.00;2.00
66336;PMS1003;53139;45.576;5.304;2022-07-06T15:49:07;3.25;1.75;1.75
66336;PMS1003;53139;45.576;5.304;2022-07-06T15:52:07;2.00;2.00;1.50
66336;PMS1003;53139;45.576;5.304;2022-07-06T15:55:08;3.00;1.50;1.50
66336;PMS1003;53139;45.576;5.304;2022-07-06T15:58:08;1.75;1.75;1.75
66336;PMS1003;53139;45.576;5.304;2022-07-06T16:01:08;1.25;1.25;1.25
66336;PMS1003;53139;45.576;5.304;2022-07-06T16:04:09;2.00;2.00;2.00
66336;PMS1003;53139;45.576;5.304;2022-07-06T16:07:10;1.75;1.75;1.75
66336;PMS1003;53139;45.576;5.304;2022-07-06T16:10:11;2.00;2.00;2.00
66336;PMS1003;53139;45.576;5.304;2022-07-06T16:13:11;3.00;3.00;3.00
66336;PMS1003;53139;45.576;5.304;2022-07-06T16:16:12;2.00;2.00;1.50
66336;PMS1003;53139;45.576;5.304;2022-07-06T16:19:12;2.50;1.75;1.50
66336;PMS1003;53139;45.576;5.304;2022-07-06T16:22:13;2.00;2.00;2.00
66336;PMS1003;53139;45.576;5.304;2022-07-06T16:25:13;2.00;2.00;2.00
66336;PMS1003;53139;45.576;5.304;2022-07-06T16:28:15;2.50;2.50;1.50
66336;PMS1003;53139;45.576;5.304;2022-07-06T16:31:15;2.75;2.75;2.50
66336;PMS1003;53139;45.576;5.304;2022-07-06T16:34:15;3.00;2.50;2.50
66336;PMS1003;53139;45.576;5.304;2022-07-06T16:37:16;2.00;2.00;1.75
66336;PMS1003;53139;45.576;5.304;2022-07-06T16:40:16;3.75;3.75;3.50
66336;PMS1003;53139;45.576;5.304;2022-07-06T16:43:17;2.00;2.00;1.75
66336;PMS1003;53139;45.576;5.304;2022-07-06T16:46:17;3.00;1.50;1.00
66336;PMS1003;53139;45.576;5.304;2022-07-06T16:49:18;2.50;2.00;2.00
66336;PMS1003;53139;45.576;5.304;2022-07-06T16:52:18;2.00;2.00;2.00
66336;PMS1003;53139;45.576;5.304;2022-07-06T16:55:18;2.75;2.00;2.00
66336;PMS1003;53139;45.576;5.304;2022-07-06T16:58:19;3.00;3.00;3.00
66336;PMS1003;53139;45.576;5.304;2022-07-06T17:01:20;3.00;3.00;3.00
66336;PMS1003;53139;45.576;5.304;2022-07-06T17:04:21;1.75;1.75;1.75
66336;PMS1003;53139;45.576;5.304;2022-07-06T17:07:21;2.25;2.00;2.00
66336;PMS1003;53139;45.576;5.304;2022-07-06T17:10:22;2.75;2.75;2.75
66336;PMS1003;53139;45.576;5.304;2022-07-06T17:13:22;2.00;2.00;2.00
66336;PMS1003;53139;45.576;5.304;2022-07-06T17:16:22;1.75;1.75;1.75
66336;PMS1003;53139;45.576;5.304;2022-07-06T17:19:23;2.00;2.00;2.00
66336;PMS1003;53139;45.576;5.304;2022-07-06T17:22:24;2.00;2.00;2.00
66336;PMS1003;53139;45.576;5.304;2022-07-06T17:25:24;2.75;2.75;2.00
66336;PMS1003;53139;45.576;5.304;2022-07-06T17:28:25;2.25;2.25;2.00
66336;PMS1003;53139;45.576;5.304;2022-07-06T17:31:26;1.00;1.00;1.00
66336;PMS1003;53139;45.576;5.304;2022-07-06T17:34:26;2.75;2.00;1.75
66336;PMS1003;53139;45.576;5.304;2022-07-06T17:37:26;3.00;2.25;2.00
66336;PMS1003;53139;45.576;5.304;2022-07-06T17:40:27;2.50;2.50;2.00
66336;PMS1003;53139;45.576;5.304;2022-07-06T17:43:27;3.50;3.00;2.50
66336;PMS1003;53139;45.576;5.304;2022-07-06T17:46:28;3.00;3.00;3.00
66336;PMS1003;53139;45.576;5.304;2022-07-06T17:49:28;2.00;2.00;1.00